sensor_id;sensor_type;location;lat;lon;timestamp;pressure;altitude;pressure_sealevel;temperature;humidity
6094;BME280;19964;42.060;24.700;2023-05-20T00:02:06;97734.97;;;13.36;94.54
6094;BME280;19964;42.060;24.700;2023-05-20T00:04:32;97731.28;;;13.49;94.14
6094;BME280;19964;42.060;24.700;2023-05-20T00:06:59;97720.56;;;13.45;94.21
6094;BME280;19964;42.060;24.700;2023-05-20T00:09:26;97718.34;;;13.37;94.64
6094;BME280;19964;42.060;24.700;2023-05-20T00:11:55;97720.25;;;13.42;94.74
6094;BME280;19964;42.060;24.700;2023-05-20T00:14:22;97715.22;;;13.52;94.07
6094;BME280;19964;42.060;24.700;2023-05-20T00:16:48;97722.84;;;13.42;95.38
6094;BME280;19964;42.060;24.700;2023-05-20T00:19:15;97719.38;;;13.36;96.01
6094;BME280;19964;42.060;24.700;2023-05-20T00:21:42;97719.84;;;13.33;96.14
6094;BME280;19964;42.060;24.700;2023-05-20T00:24:09;97709.50;;;13.38;96.11
6094;BME280;19964;42.060;24.700;2023-05-20T00:26:35;97717.81;;;13.52;95.49
6094;BME280;19964;42.060;24.700;2023-05-20T00:29:03;97710.94;;;13.46;95.06
6094;BME280;19964;42.060;24.700;2023-05-20T00:31:30;97715.97;;;13.52;94.72
6094;BME280;19964;42.060;24.700;2023-05-20T00:33:57;97721.44;;;13.51;94.77
6094;BME280;19964;42.060;24.700;2023-05-20T00:36:24;97714.25;;;13.41;95.36
6094;BME280;19964;42.060;24.700;2023-05-20T00:38:51;97710.06;;;13.40;96.03
6094;BME280;19964;42.060;24.700;2023-05-20T00:41:18;97718.81;;;13.51;95.08
6094;BME280;19964;42.060;24.700;2023-05-20T00:43:46;97706.69;;;13.39;95.92
6094;BME280;19964;42.060;24.700;2023-05-20T00:46:14;97717.25;;;13.33;97.12
6094;BME280;19964;42.060;24.700;2023-05-20T00:48:42;97710.63;;;13.25;97.66
6094;BME280;19964;42.060;24.700;2023-05-20T00:51:09;97710.28;;;13.05;100.00
6094;BME280;19964;42.060;24.700;2023-05-20T00:53:37;97712.47;;;12.97;100.00
6094;BME280;19964;42.060;24.700;2023-05-20T00:56:05;97704.09;;;12.95;100.00
6094;BME280;19964;42.060;24.700;2023-05-20T00:58:33;97710.31;;;12.94;100.00
6094;BME280;19964;42.060;24.700;2023-05-20T01:01:01;97706.00;;;12.99;100.00
6094;BME280;19964;42.060;24.700;2023-05-20T01:03:29;97659.13;;;12.66;99.62
6094;BME280;19964;42.060;24.700;2023-05-20T01:05:56;97718.19;;;13.10;99.16
6094;BME280;19964;42.060;24.700;2023-05-20T01:08:23;97696.72;;;13.03;99.10
6094;BME280;19964;42.060;24.700;2023-05-20T01:10:57;97707.41;;;13.18;99.04
6094;BME280;19964;42.060;24.700;2023-05-20T01:13:29;97701.84;;;13.15;98.39
6094;BME280;19964;42.060;24.700;2023-05-20T01:15:59;97688.78;;;13.26;96.23
6094;BME280;19964;42.060;24.700;2023-05-20T01:18:27;97692.88;;;13.39;96.34
6094;BME280;19964;42.060;24.700;2023-05-20T01:20:58;97688.69;;;13.38;95.94
6094;BME280;19964;42.060;24.700;2023-05-20T01:23:36;97693.22;;;13.26;97.42
6094;BME280;19964;42.060;24.700;2023-05-20T01:26:03;97686.56;;;13.35;95.38
6094;BME280;19964;42.060;24.700;2023-05-20T01:28:30;97691.88;;;13.23;97.09
6094;BME280;19964;42.060;24.700;2023-05-20T01:31:00;97691.38;;;13.26;96.88
6094;BME280;19964;42.060;24.700;2023-05-20T01:33:29;97695.56;;;13.27;97.03
6094;BME280;19964;42.060;24.700;2023-05-20T01:35:57;97679.78;;;13.17;96.93
6094;BME280;19964;42.060;24.700;2023-05-20T01:38:25;97697.22;;;13.33;95.40
6094;BME280;19964;42.060;24.700;2023-05-20T01:40:54;97689.72;;;13.37;95.78
6094;BME280;19964;42.060;24.700;2023-05-20T01:43:23;97688.06;;;13.31;96.47
6094;BME280;19964;42.060;24.700;2023-05-20T01:45:51;97688.78;;;13.26;97.45
6094;BME280;19964;42.060;24.700;2023-05-20T01:48:18;97669.47;;;13.06;98.75
6094;BME280;19964;42.060;24.700;2023-05-20T01:50:44;97680.50;;;13.13;98.85
6094;BME280;19964;42.060;24.700;2023-05-20T01:53:11;97672.69;;;13.13;98.99
6094;BME280;19964;42.060;24.700;2023-05-20T01:55:38;97662.66;;;13.05;99.87
6094;BME280;19964;42.060;24.700;2023-05-20T01:58:06;97677.75;;;13.19;97.89
6094;BME280;19964;42.060;24.700;2023-05-20T02:00:33;97677.41;;;13.32;96.70
6094;BME280;19964;42.060;24.700;2023-05-20T02:03:00;97676.78;;;13.42;96.08
6094;BME280;19964;42.060;24.700;2023-05-20T02:05:28;97661.88;;;13.21;97.71
6094;BME280;19964;42.060;24.700;2023-05-20T02:07:54;97670.25;;;13.39;96.20
6094;BME280;19964;42.060;24.700;2023-05-20T02:10:21;97667.41;;;13.41;96.38
6094;BME280;19964;42.060;24.700;2023-05-20T02:12:48;97672.38;;;13.43;95.79
6094;BME280;19964;42.060;24.700;2023-05-20T02:15:16;97669.75;;;13.59;94.70
6094;BME280;19964;42.060;24.700;2023-05-20T02:17:43;97654.94;;;13.43;96.14
6094;BME280;19964;42.060;24.700;2023-05-20T02:20:11;97669.31;;;13.46;96.31
6094;BME280;19964;42.060;24.700;2023-05-20T02:22:38;97672.41;;;13.26;98.71
6094;BME280;19964;42.060;24.700;2023-05-20T02:25:06;97662.44;;;13.23;98.33
6094;BME280;19964;42.060;24.700;2023-05-20T02:27:32;97667.00;;;13.32;96.40
6094;BME280;19964;42.060;24.700;2023-05-20T02:29:59;97662.22;;;13.08;99.24
6094;BME280;19964;42.060;24.700;2023-05-20T02:32:27;97665.41;;;12.98;100.00
6094;BME280;19964;42.060;24.700;2023-05-20T02:34:54;97664.81;;;13.08;98.86
6094;BME280;19964;42.060;24.700;2023-05-20T02:37:21;97617.72;;;12.76;99.08
6094;BME280;19964;42.060;24.700;2023-05-20T02:39:48;97660.47;;;12.97;99.88
6094;BME280;19964;42.060;24.700;2023-05-20T02:42:15;97645.38;;;12.82;99.68
6094;BME280;19964;42.060;24.700;2023-05-20T02:44:42;97653.88;;;12.78;100.00
6094;BME280;19964;42.060;24.700;2023-05-20T02:47:09;97559.38;;;12.22;100.00
6094;BME280;19964;42.060;24.700;2023-05-20T02:49:37;97654.03;;;12.88;100.00
6094;BME280;19964;42.060;24.700;2023-05-20T02:52:04;97653.81;;;12.89;99.80
6094;BME280;19964;42.060;24.700;2023-05-20T02:54:31;97649.81;;;12.98;99.30
6094;BME280;19964;42.060;24.700;2023-05-20T02:56:57;97637.69;;;12.87;99.22
6094;BME280;19964;42.060;24.700;2023-05-20T02:59:24;97639.72;;;13.02;97.16
6094;BME280;19964;42.060;24.700;2023-05-20T03:01:51;97650.06;;;13.13;97.01
6094;BME280;19964;42.060;24.700;2023-05-20T03:04:18;97653.63;;;13.24;96.08
6094;BME280;19964;42.060;24.700;2023-05-20T03:06:47;97655.59;;;13.33;95.86
6094;BME280;19964;42.060;24.700;2023-05-20T03:09:16;97645.88;;;13.29;95.89
6094;BME280;19964;42.060;24.700;2023-05-20T03:11:43;97659.31;;;13.37;96.86
6094;BME280;19964;42.060;24.700;2023-05-20T03:14:10;97662.34;;;13.51;95.44
6094;BME280;19964;42.060;24.700;2023-05-20T03:16:37;97668.88;;;13.54;95.35
6094;BME280;19964;42.060;24.700;2023-05-20T03:19:04;97669.44;;;13.56;95.82
6094;BME280;19964;42.060;24.700;2023-05-20T03:21:31;97663.91;;;13.52;97.44
6094;BME280;19964;42.060;24.700;2023-05-20T03:23:59;97633.81;;;13.39;96.31
6094;BME280;19964;42.060;24.700;2023-05-20T03:26:26;97672.88;;;13.78;94.32
6094;BME280;19964;42.060;24.700;2023-05-20T03:28:54;97670.16;;;13.89;93.42
6094;BME280;19964;42.060;24.700;2023-05-20T03:31:21;97675.31;;;13.84;94.92
6094;BME280;19964;42.060;24.700;2023-05-20T03:33:48;97683.13;;;13.84;95.98
6094;BME280;19964;42.060;24.700;2023-05-20T03:36:15;97686.84;;;13.72;96.07
6094;BME280;19964;42.060;24.700;2023-05-20T03:38:42;97685.03;;;13.56;97.26
6094;BME280;19964;42.060;24.700;2023-05-20T03:41:10;97693.34;;;13.36;100.00
6094;BME280;19964;42.060;24.700;2023-05-20T03:43:37;97700.06;;;13.32;100.00
6094;BME280;19964;42.060;24.700;2023-05-20T03:46:04;97702.72;;;13.20;100.00
6094;BME280;19964;42.060;24.700;2023-05-20T03:48:30;97703.44;;;13.16;100.00
6094;BME280;19964;42.060;24.700;2023-05-20T03:50:57;97708.03;;;13.25;100.00
6094;BME280;19964;42.060;24.700;2023-05-20T03:53:24;97701.16;;;13.19;100.00
6094;BME280;19964;42.060;24.700;2023-05-20T03:55:51;97704.72;;;13.30;100.00
6094;BME280;19964;42.060;24.700;2023-05-20T03:58:19;97710.78;;;13.35;100.00
6094;BME280;19964;42.060;24.700;2023-05-20T04:00:46;97721.34;;;13.62;100.00
6094;BME280;19964;42.060;24.700;2023-05-20T04:03:13;97706.03;;;13.66;100.00
6094;BME280;19964;42.060;24.700;2023-05-20T04:05:40;97718.84;;;13.89;100.00
6094;BME280;19964;42.060;24.700;2023-05-20T04:08:07;97710.75;;;14.07;100.00
6094;BME280;19964;42.060;24.700;2023-05-20T04:10:34;97719.63;;;14.06;100.00
6094;BME280;19964;42.060;24.700;2023-05-20T04:13:01;97723.06;;;14.11;100.00
6094;BME280;19964;42.060;24.700;2023-05-20T04:15:29;97727.03;;;14.36;100.00
6094;BME280;19964;42.060;24.700;2023-05-20T04:17:56;97727.75;;;14.74;100.00
6094;BME280;19964;42.060;24.700;2023-05-20T04:20:23;97729.16;;;15.13;95.17
6094;BME280;19964;42.060;24.700;2023-05-20T04:22:50;97729.34;;;15.34;92.96
6094;BME280;19964;42.060;24.700;2023-05-20T04:25:18;97721.91;;;15.47;95.12
6094;BME280;19964;42.060;24.700;2023-05-20T04:27:45;97700.69;;;15.75;94.71
6094;BME280;19964;42.060;24.700;2023-05-20T04:30:12;97721.31;;;16.24;92.63
6094;BME280;19964;42.060;24.700;2023-05-20T04:32:42;97717.56;;;16.56;91.29
6094;BME280;19964;42.060;24.700;2023-05-20T04:35:09;97722.25;;;16.54;88.27
6094;BME280;19964;42.060;24.700;2023-05-20T04:37:38;97717.84;;;16.70;87.72
6094;BME280;19964;42.060;24.700;2023-05-20T04:40:07;97718.94;;;16.79;86.62
6094;BME280;19964;42.060;24.700;2023-05-20T04:42:34;97710.88;;;17.01;82.43
6094;BME280;19964;42.060;24.700;2023-05-20T04:45:02;97723.97;;;17.36;80.50
6094;BME280;19964;42.060;24.700;2023-05-20T04:47:30;97726.34;;;17.67;78.83
6094;BME280;19964;42.060;24.700;2023-05-20T04:50:05;97731.75;;;18.16;78.25
6094;BME280;19964;42.060;24.700;2023-05-20T04:52:35;97729.50;;;18.63;75.99
6094;BME280;19964;42.060;24.700;2023-05-20T04:55:02;97730.38;;;18.93;73.89
6094;BME280;19964;42.060;24.700;2023-05-20T04:57:29;97738.72;;;19.00;72.87
6094;BME280;19964;42.060;24.700;2023-05-20T04:59:59;97733.03;;;19.26;71.29
6094;BME280;19964;42.060;24.700;2023-05-20T05:02:26;97719.31;;;19.39;70.09
6094;BME280;19964;42.060;24.700;2023-05-20T05:04:53;97731.53;;;19.54;68.89
6094;BME280;19964;42.060;24.700;2023-05-20T05:07:21;97742.97;;;19.68;67.99
6094;BME280;19964;42.060;24.700;2023-05-20T05:09:48;97741.69;;;20.18;69.08
6094;BME280;19964;42.060;24.700;2023-05-20T05:12:15;97741.19;;;20.63;66.54
6094;BME280;19964;42.060;24.700;2023-05-20T05:14:41;97741.47;;;21.04;63.27
6094;BME280;19964;42.060;24.700;2023-05-20T05:17:08;97737.41;;;21.44;62.69
6094;BME280;19964;42.060;24.700;2023-05-20T05:19:35;97739.28;;;20.87;66.86
6094;BME280;19964;42.060;24.700;2023-05-20T05:22:02;97742.84;;;19.83;70.47
6094;BME280;19964;42.060;24.700;2023-05-20T05:24:30;97738.41;;;20.31;71.00
6094;BME280;19964;42.060;24.700;2023-05-20T05:26:57;97736.38;;;20.89;69.37
6094;BME280;19964;42.060;24.700;2023-05-20T05:29:23;97733.56;;;21.04;70.43
6094;BME280;19964;42.060;24.700;2023-05-20T05:31:50;97741.22;;;21.00;67.22
6094;BME280;19964;42.060;24.700;2023-05-20T05:34:17;97739.63;;;20.99;68.88
6094;BME280;19964;42.060;24.700;2023-05-20T05:36:44;97735.13;;;20.81;72.27
6094;BME280;19964;42.060;24.700;2023-05-20T05:39:13;97740.44;;;20.39;68.91
6094;BME280;19964;42.060;24.700;2023-05-20T05:41:41;97752.69;;;20.25;70.45
6094;BME280;19964;42.060;24.700;2023-05-20T05:44:08;97747.78;;;20.13;70.41
6094;BME280;19964;42.060;24.700;2023-05-20T05:46:35;97761.94;;;20.22;68.94
6094;BME280;19964;42.060;24.700;2023-05-20T05:49:02;97758.41;;;20.32;69.13
6094;BME280;19964;42.060;24.700;2023-05-20T05:51:28;97765.19;;;20.38;68.41
6094;BME280;19964;42.060;24.700;2023-05-20T05:53:55;97771.22;;;20.38;67.69
6094;BME280;19964;42.060;24.700;2023-05-20T05:56:22;97759.63;;;20.82;67.50
6094;BME280;19964;42.060;24.700;2023-05-20T05:58:51;97698.72;;;21.07;67.14
6094;BME280;19964;42.060;24.700;2023-05-20T06:01:17;97741.84;;;21.80;67.10
6094;BME280;19964;42.060;24.700;2023-05-20T06:03:44;97745.22;;;22.40;63.64
6094;BME280;19964;42.060;24.700;2023-05-20T06:06:11;97750.69;;;22.44;63.90
6094;BME280;19964;42.060;24.700;2023-05-20T06:08:37;97746.94;;;22.85;60.78
6094;BME280;19964;42.060;24.700;2023-05-20T06:11:04;97760.34;;;23.25;59.06
6094;BME280;19964;42.060;24.700;2023-05-20T06:13:31;97757.47;;;23.57;57.66
6094;BME280;19964;42.060;24.700;2023-05-20T06:15:59;97756.41;;;23.36;57.93
6094;BME280;19964;42.060;24.700;2023-05-20T06:18:26;97750.13;;;22.96;57.42
6094;BME280;19964;42.060;24.700;2023-05-20T06:20:54;97747.53;;;22.82;57.31
6094;BME280;19964;42.060;24.700;2023-05-20T06:23:21;97739.59;;;23.18;56.02
6094;BME280;19964;42.060;24.700;2023-05-20T06:25:48;97741.34;;;23.23;56.82
6094;BME280;19964;42.060;24.700;2023-05-20T06:28:15;97742.53;;;22.81;57.61
6094;BME280;19964;42.060;24.700;2023-05-20T06:30:43;97731.59;;;22.06;58.05
6094;BME280;19964;42.060;24.700;2023-05-20T06:33:11;97732.00;;;22.27;59.93
6094;BME280;19964;42.060;24.700;2023-05-20T06:35:38;97745.91;;;22.59;57.72
6094;BME280;19964;42.060;24.700;2023-05-20T06:38:05;97733.31;;;22.92;57.07
6094;BME280;19964;42.060;24.700;2023-05-20T06:40:31;97734.94;;;22.66;58.64
6094;BME280;19964;42.060;24.700;2023-05-20T06:42:58;97733.78;;;22.45;59.06
6094;BME280;19964;42.060;24.700;2023-05-20T06:45:25;97738.25;;;22.71;58.93
6094;BME280;19964;42.060;24.700;2023-05-20T06:47:52;97732.50;;;23.05;57.12
6094;BME280;19964;42.060;24.700;2023-05-20T06:50:20;97708.84;;;22.64;59.05
6094;BME280;19964;42.060;24.700;2023-05-20T06:52:47;97728.34;;;23.48;60.14
6094;BME280;19964;42.060;24.700;2023-05-20T06:55:13;97734.63;;;23.61;57.46
6094;BME280;19964;42.060;24.700;2023-05-20T06:57:40;97736.53;;;23.25;57.25
6094;BME280;19964;42.060;24.700;2023-05-20T07:00:08;97735.75;;;23.24;59.25
6094;BME280;19964;42.060;24.700;2023-05-20T07:02:35;97732.50;;;23.05;58.84
6094;BME280;19964;42.060;24.700;2023-05-20T07:05:02;97737.28;;;23.61;56.08
6094;BME280;19964;42.060;24.700;2023-05-20T07:07:30;97736.94;;;23.32;57.93
6094;BME280;19964;42.060;24.700;2023-05-20T07:09:57;97753.13;;;23.83;56.15
6094;BME280;19964;42.060;24.700;2023-05-20T07:12:24;97750.56;;;24.31;54.89
6094;BME280;19964;42.060;24.700;2023-05-20T07:14:51;97751.06;;;23.80;55.01
6094;BME280;19964;42.060;24.700;2023-05-20T07:17:17;97752.25;;;24.18;58.33
6094;BME280;19964;42.060;24.700;2023-05-20T07:19:44;97744.88;;;24.07;57.07
6094;BME280;19964;42.060;24.700;2023-05-20T07:22:11;97704.88;;;23.33;55.08
6094;BME280;19964;42.060;24.700;2023-05-20T07:24:39;97751.50;;;22.58;58.00
6094;BME280;19964;42.060;24.700;2023-05-20T07:27:09;97753.19;;;22.89;55.91
6094;BME280;19964;42.060;24.700;2023-05-20T07:29:36;97743.78;;;23.33;56.98
6094;BME280;19964;42.060;24.700;2023-05-20T07:32:03;97756.88;;;23.38;56.68
6094;BME280;19964;42.060;24.700;2023-05-20T07:34:30;97716.00;;;23.44;55.38
6094;BME280;19964;42.060;24.700;2023-05-20T07:36:57;97739.78;;;22.86;56.58
6094;BME280;19964;42.060;24.700;2023-05-20T07:39:24;97757.41;;;23.26;56.04
6094;BME280;19964;42.060;24.700;2023-05-20T07:41:53;97764.81;;;23.38;54.29
6094;BME280;19964;42.060;24.700;2023-05-20T07:44:20;97759.88;;;23.67;53.80
6094;BME280;19964;42.060;24.700;2023-05-20T07:46:47;97764.88;;;23.68;53.84
6094;BME280;19964;42.060;24.700;2023-05-20T07:49:14;97757.25;;;24.28;55.82
6094;BME280;19964;42.060;24.700;2023-05-20T07:51:41;97753.22;;;24.79;57.66
6094;BME280;19964;42.060;24.700;2023-05-20T07:54:08;97750.19;;;24.15;55.41
6094;BME280;19964;42.060;24.700;2023-05-20T07:56:35;97753.69;;;24.98;53.21
6094;BME280;19964;42.060;24.700;2023-05-20T07:59:03;97763.81;;;24.87;51.37
6094;BME280;19964;42.060;24.700;2023-05-20T08:01:30;97749.47;;;25.05;52.32
6094;BME280;19964;42.060;24.700;2023-05-20T08:03:56;97757.91;;;24.90;50.41
6094;BME280;19964;42.060;24.700;2023-05-20T08:06:23;97756.53;;;25.52;49.46
6094;BME280;19964;42.060;24.700;2023-05-20T08:08:50;97757.75;;;25.29;51.29
6094;BME280;19964;42.060;24.700;2023-05-20T08:11:18;97761.72;;;24.58;50.35
6094;BME280;19964;42.060;24.700;2023-05-20T08:13:45;97758.53;;;25.13;49.30
6094;BME280;19964;42.060;24.700;2023-05-20T08:16:14;97749.25;;;24.59;51.59
6094;BME280;19964;42.060;24.700;2023-05-20T08:18:41;97764.56;;;24.79;51.30
6094;BME280;19964;42.060;24.700;2023-05-20T08:21:08;97759.47;;;23.73;50.83
6094;BME280;19964;42.060;24.700;2023-05-20T08:23:35;97768.28;;;23.91;50.88
6094;BME280;19964;42.060;24.700;2023-05-20T08:26:02;97761.41;;;24.12;49.89
6094;BME280;19964;42.060;24.700;2023-05-20T08:28:35;97768.88;;;24.19;47.24
6094;BME280;19964;42.060;24.700;2023-05-20T08:31:02;97767.56;;;23.77;49.38
6094;BME280;19964;42.060;24.700;2023-05-20T08:33:31;97752.50;;;23.20;52.91
6094;BME280;19964;42.060;24.700;2023-05-20T08:35:57;97748.97;;;23.24;49.55
6094;BME280;19964;42.060;24.700;2023-05-20T08:38:25;97750.03;;;23.37;50.94
6094;BME280;19964;42.060;24.700;2023-05-20T08:40:53;97750.03;;;23.01;50.04
6094;BME280;19964;42.060;24.700;2023-05-20T08:43:21;97741.28;;;23.14;50.60
6094;BME280;19964;42.060;24.700;2023-05-20T08:45:48;97749.22;;;24.03;52.01
6094;BME280;19964;42.060;24.700;2023-05-20T08:48:17;97748.97;;;24.69;49.49
6094;BME280;19964;42.060;24.700;2023-05-20T08:50:48;97753.94;;;24.70;45.28
6094;BME280;19964;42.060;24.700;2023-05-20T08:53:15;97751.28;;;24.70;47.11
6094;BME280;19964;42.060;24.700;2023-05-20T08:55:50;97767.75;;;24.50;46.71
6094;BME280;19964;42.060;24.700;2023-05-20T08:58:18;97755.72;;;24.75;48.61
6094;BME280;19964;42.060;24.700;2023-05-20T09:00:44;97748.97;;;24.69;46.65
6094;BME280;19964;42.060;24.700;2023-05-20T09:03:11;97755.63;;;24.10;47.32
6094;BME280;19964;42.060;24.700;2023-05-20T09:05:38;97748.22;;;24.77;46.88
6094;BME280;19964;42.060;24.700;2023-05-20T09:08:07;97739.97;;;24.31;44.80
6094;BME280;19964;42.060;24.700;2023-05-20T09:10:35;97738.69;;;24.76;45.13
6094;BME280;19964;42.060;24.700;2023-05-20T09:13:04;97743.44;;;24.48;45.80
6094;BME280;19964;42.060;24.700;2023-05-20T09:15:32;97753.00;;;23.66;47.44
6094;BME280;19964;42.060;24.700;2023-05-20T09:18:04;97691.59;;;24.08;49.67
6094;BME280;19964;42.060;24.700;2023-05-20T09:20:35;97735.38;;;24.62;48.98
6094;BME280;19964;42.060;24.700;2023-05-20T09:23:04;97733.97;;;24.17;48.01
6094;BME280;19964;42.060;24.700;2023-05-20T09:25:32;97743.03;;;24.16;48.51
6094;BME280;19964;42.060;24.700;2023-05-20T09:27:59;97741.34;;;24.20;49.76
6094;BME280;19964;42.060;24.700;2023-05-20T09:30:26;97745.34;;;23.34;51.30
6094;BME280;19964;42.060;24.700;2023-05-20T09:32:53;97748.13;;;23.15;52.55
6094;BME280;19964;42.060;24.700;2023-05-20T09:35:20;97729.47;;;22.35;53.35
6094;BME280;19964;42.060;24.700;2023-05-20T09:37:50;97749.63;;;22.58;54.49
6094;BME280;19964;42.060;24.700;2023-05-20T09:40:20;97741.22;;;22.92;52.98
6094;BME280;19964;42.060;24.700;2023-05-20T09:42:52;97740.59;;;22.46;54.14
6094;BME280;19964;42.060;24.700;2023-05-20T09:45:20;97741.22;;;22.43;53.39
6094;BME280;19964;42.060;24.700;2023-05-20T09:47:49;97738.75;;;22.19;53.23
6094;BME280;19964;42.060;24.700;2023-05-20T09:50:16;97747.31;;;21.84;54.41
6094;BME280;19964;42.060;24.700;2023-05-20T09:52:46;97733.13;;;21.48;55.87
6094;BME280;19964;42.060;24.700;2023-05-20T09:55:13;97735.41;;;21.54;57.40
6094;BME280;19964;42.060;24.700;2023-05-20T09:57:44;97736.41;;;22.04;54.14
6094;BME280;19964;42.060;24.700;2023-05-20T10:00:15;97676.66;;;22.08;54.95
6094;BME280;19964;42.060;24.700;2023-05-20T10:02:48;97695.13;;;22.49;52.22
6094;BME280;19964;42.060;24.700;2023-05-20T10:05:17;97726.44;;;22.42;53.52
6094;BME280;19964;42.060;24.700;2023-05-20T10:08:13;97717.63;;;22.46;55.12
6094;BME280;19964;42.060;24.700;2023-05-20T10:10:48;97677.13;;;22.37;54.85
6094;BME280;19964;42.060;24.700;2023-05-20T10:13:24;97716.38;;;22.57;53.96
6094;BME280;19964;42.060;24.700;2023-05-20T10:16:05;97706.75;;;22.61;54.86
6094;BME280;19964;42.060;24.700;2023-05-20T10:18:44;97704.91;;;22.48;55.40
6094;BME280;19964;42.060;24.700;2023-05-20T10:21:16;97679.78;;;22.37;55.13
6094;BME280;19964;42.060;24.700;2023-05-20T10:23:43;97709.41;;;21.93;56.77
6094;BME280;19964;42.060;24.700;2023-05-20T10:26:10;97697.28;;;22.06;56.31
6094;BME280;19964;42.060;24.700;2023-05-20T10:28:39;97714.31;;;22.00;56.74
6094;BME280;19964;42.060;24.700;2023-05-20T10:31:16;97713.88;;;21.15;58.47
6094;BME280;19964;42.060;24.700;2023-05-20T10:33:44;97697.97;;;21.52;58.57
6094;BME280;19964;42.060;24.700;2023-05-20T10:36:21;97689.72;;;21.59;57.73
6094;BME280;19964;42.060;24.700;2023-05-20T10:38:55;97690.25;;;21.88;57.72
6094;BME280;19964;42.060;24.700;2023-05-20T10:41:24;97665.59;;;21.79;57.94
6094;BME280;19964;42.060;24.700;2023-05-20T10:43:59;97694.38;;;21.48;56.64
6094;BME280;19964;42.060;24.700;2023-05-20T10:46:28;97687.94;;;21.54;56.91
6094;BME280;19964;42.060;24.700;2023-05-20T10:48:55;97688.78;;;21.50;57.82
6094;BME280;19964;42.060;24.700;2023-05-20T10:51:22;97702.38;;;21.43;54.34
6094;BME280;19964;42.060;24.700;2023-05-20T10:53:52;97662.66;;;21.53;51.95
6094;BME280;19964;42.060;24.700;2023-05-20T10:56:24;97714.50;;;22.58;52.17
6094;BME280;19964;42.060;24.700;2023-05-20T10:58:52;97689.28;;;22.38;52.18
6094;BME280;19964;42.060;24.700;2023-05-20T11:01:25;97707.84;;;21.92;52.52
6094;BME280;19964;42.060;24.700;2023-05-20T11:03:56;97707.47;;;21.99;54.29
6094;BME280;19964;42.060;24.700;2023-05-20T11:06:26;97707.59;;;21.75;55.68
6094;BME280;19964;42.060;24.700;2023-05-20T11:08:54;97710.97;;;21.81;54.97
6094;BME280;19964;42.060;24.700;2023-05-20T11:11:21;97714.13;;;20.95;57.09
6094;BME280;19964;42.060;24.700;2023-05-20T11:13:49;97701.13;;;20.85;57.91
6094;BME280;19964;42.060;24.700;2023-05-20T11:16:16;97713.47;;;21.08;60.23
6094;BME280;19964;42.060;24.700;2023-05-20T11:18:43;97701.06;;;20.90;59.38
6094;BME280;19964;42.060;24.700;2023-05-20T11:21:11;97706.25;;;20.58;56.83
6094;BME280;19964;42.060;24.700;2023-05-20T11:23:38;97700.78;;;20.73;58.81
6094;BME280;19964;42.060;24.700;2023-05-20T11:26:05;97705.97;;;20.96;59.13
6094;BME280;19964;42.060;24.700;2023-05-20T11:28:34;97697.09;;;20.50;58.94
6094;BME280;19964;42.060;24.700;2023-05-20T11:31:02;97699.31;;;20.62;57.17
6094;BME280;19964;42.060;24.700;2023-05-20T11:33:29;97699.81;;;20.26;56.31
6094;BME280;19964;42.060;24.700;2023-05-20T11:35:56;97691.19;;;20.16;55.89
6094;BME280;19964;42.060;24.700;2023-05-20T11:38:24;97699.94;;;20.11;55.97
6094;BME280;19964;42.060;24.700;2023-05-20T11:40:53;97693.25;;;20.24;56.35
6094;BME280;19964;42.060;24.700;2023-05-20T11:43:20;97682.44;;;20.44;55.34
6094;BME280;19964;42.060;24.700;2023-05-20T11:45:52;97675.34;;;20.82;55.38
6094;BME280;19964;42.060;24.700;2023-05-20T11:48:19;97686.34;;;21.40;56.20
6094;BME280;19964;42.060;24.700;2023-05-20T11:50:46;97675.69;;;21.12;54.89
6094;BME280;19964;42.060;24.700;2023-05-20T11:53:15;97696.00;;;20.93;52.55
6094;BME280;19964;42.060;24.700;2023-05-20T11:55:48;97678.06;;;20.77;53.82
6094;BME280;19964;42.060;24.700;2023-05-20T11:58:15;97685.03;;;20.86;53.32
6094;BME280;19964;42.060;24.700;2023-05-20T12:00:42;97694.88;;;20.81;54.81
6094;BME280;19964;42.060;24.700;2023-05-20T12:03:09;97683.31;;;20.95;55.30
6094;BME280;19964;42.060;24.700;2023-05-20T12:05:36;97685.38;;;21.17;55.17
6094;BME280;19964;42.060;24.700;2023-05-20T12:08:03;97681.97;;;20.98;53.34
6094;BME280;19964;42.060;24.700;2023-05-20T12:10:30;97635.94;;;20.58;55.15
6094;BME280;19964;42.060;24.700;2023-05-20T12:12:59;97665.25;;;20.70;56.71
6094;BME280;19964;42.060;24.700;2023-05-20T12:15:27;97686.53;;;20.74;56.05
6094;BME280;19964;42.060;24.700;2023-05-20T12:17:54;97684.09;;;20.96;56.70
6094;BME280;19964;42.060;24.700;2023-05-20T12:20:23;97675.16;;;20.78;56.30
6094;BME280;19964;42.060;24.700;2023-05-20T12:22:50;97680.56;;;20.50;56.03
6094;BME280;19964;42.060;24.700;2023-05-20T12:25:18;97623.69;;;20.30;58.05
6094;BME280;19964;42.060;24.700;2023-05-20T12:27:45;97636.72;;;20.59;55.97
6094;BME280;19964;42.060;24.700;2023-05-20T12:30:14;97669.03;;;20.83;55.85
6094;BME280;19964;42.060;24.700;2023-05-20T12:32:42;97660.31;;;20.64;57.24
6094;BME280;19964;42.060;24.700;2023-05-20T12:35:09;97622.47;;;20.41;55.86
6094;BME280;19964;42.060;24.700;2023-05-20T12:37:36;97662.00;;;20.60;55.83
6094;BME280;19964;42.060;24.700;2023-05-20T12:40:04;97660.41;;;20.77;55.69
6094;BME280;19964;42.060;24.700;2023-05-20T12:42:33;97656.63;;;20.83;54.42
6094;BME280;19964;42.060;24.700;2023-05-20T12:45:00;97655.03;;;21.19;55.72
6094;BME280;19964;42.060;24.700;2023-05-20T12:47:28;97637.75;;;20.95;56.11
6094;BME280;19964;42.060;24.700;2023-05-20T12:49:55;97639.53;;;21.18;55.82
6094;BME280;19964;42.060;24.700;2023-05-20T12:52:22;97637.03;;;21.40;55.00
6094;BME280;19964;42.060;24.700;2023-05-20T12:54:48;97635.06;;;21.32;52.79
6094;BME280;19964;42.060;24.700;2023-05-20T12:57:15;97639.00;;;21.62;53.79
6094;BME280;19964;42.060;24.700;2023-05-20T12:59:43;97631.84;;;21.35;51.39
6094;BME280;19964;42.060;24.700;2023-05-20T13:02:10;97624.13;;;21.25;51.96
6094;BME280;19964;42.060;24.700;2023-05-20T13:04:38;97625.63;;;21.12;51.25